Rayleigh, United Kingdom
Current Conditions -  °F | °C
As of 10:50 AM on Sunday 23 Nov 2014 (Local Time) from EGMC Reporting Station
Light Rain Light Rain  
Wind Chill: 44°   Ceiling: 800
Heat Index: 48°   Visibility: 4mi
Dew Point: 46°   Wind: 10mph
Humidity: 93%   Direction: 340°NNW
Pressure: 29.97"   Gusts: NA
Location:  51.59°N, 0.61°E
Report Text: EGMC 231050Z 34009KT 310V010 6000 -RADZ BKN008 BKN012 09/08 Q1015
Loading
Personal Weather Stations






























Interactive Weather Map New forecast layout! Learn more

10-Day Weather Forecast

Advertisements
Track Severe Weather on mobile